Time;durP1;ratioP1;P1;durP2;ratioP2;P2;SDS_P1;SDS_P2;PMS_P1;PMS_P2;Temp;Humidity;BMP_temperature;BMP_pressure;BME280_temperature;BME280_humidity;BME280_pressure;Samples;Min_cycle;Max_cycle;Signal;HPM_P1;HPM_P2
2022/09/28 00:01:47;;;;;;;0.70;0.63;;;;;;;;;;4993675;28;20445;-79
2022/09/28 00:04:16;;;;;;;1.17;0.60;;;;;;;;;;4992519;28;20453;-79
2022/09/28 00:06:43;;;;;;;1.47;0.90;;;;;;;;;;4993662;28;20461;-79
2022/09/28 00:09:10;;;;;;;0.80;0.73;;;;;;;;;;4993617;28;20450;-85
2022/09/28 00:11:37;;;;;;;0.83;0.63;;;;;;;;;;4993503;28;20453;-79
2022/09/28 00:14:06;;;;;;;1.17;0.77;;;;;;;;;;4993651;28;20793;-80
2022/09/28 00:16:34;;;;;;;1.33;1.17;;;7.80;99.90;;;;;;4993576;28;20887;-79
2022/09/28 00:19:03;;;;;;;0.90;0.80;;;7.80;99.90;;;;;;4989362;28;20596;-79
2022/09/28 00:21:33;;;;;;;1.07;0.97;;;7.80;99.90;;;;;;4993470;28;20457;-80
2022/09/28 00:24:15;;;;;;;1.00;0.80;;;7.80;99.90;;;;;;4993280;28;20960;-80
2022/09/28 00:26:45;;;;;;;1.07;0.67;;;7.80;99.90;;;;;;4994500;28;20948;-83
2022/09/28 00:29:22;;;;;;;1.47;0.73;;;7.90;99.90;;;;;;4993390;28;20446;-78
2022/09/28 00:31:49;;;;;;;1.03;0.70;;;;;;;;;;4993381;28;20449;-79
2022/09/28 00:34:16;;;;;;;0.67;0.57;;;;;;;;;;4992164;28;20453;-79
2022/09/28 00:36:47;;;;;;;0.70;0.60;;;8.00;99.90;;;;;;4993299;28;20526;-78
2022/09/28 00:39:15;;;;;;;2.30;0.77;;;8.00;99.90;;;;;;4993419;28;20877;-79
2022/09/28 00:41:42;;;;;;;2.50;0.70;;;8.00;99.90;;;;;;4993316;28;20458;-79
2022/09/28 00:44:33;;;;;;;1.57;0.70;;;8.00;99.90;;;;;;4993284;28;20480;-79
2022/09/28 00:47:03;;;;;;;2.50;0.83;;;8.00;99.90;;;;;;4993096;28;20512;-78
2022/09/28 00:49:34;;;;;;;1.00;0.83;;;8.00;99.90;;;;;;4991992;28;20459;-80
2022/09/28 00:52:05;;;;;;;2.57;1.00;;;8.10;99.90;;;;;;4987480;28;20656;-79
2022/09/28 00:54:32;;;;;;;1.03;0.57;;;;;;;;;;4996843;28;20453;-79
2022/09/28 00:57:00;;;;;;;0.87;0.57;;;8.10;99.90;;;;;;4996776;28;20499;-80
2022/09/28 00:59:28;;;;;;;0.80;0.70;;;;;;;;;;4992642;28;20453;-80
2022/09/28 01:01:55;;;;;;;5.73;0.70;;;;;;;;;;4996746;28;20445;-78
2022/09/28 01:04:22;;;;;;;1.90;0.67;;;;;;;;;;4995608;28;20820;-78
2022/09/28 01:06:50;;;;;;;0.70;0.70;;;8.30;99.90;;;;;;4996641;28;20449;-80
2022/09/28 01:09:20;;;;;;;3.13;0.30;;;8.30;99.90;;;;;;4996558;28;20456;-79
2022/09/28 01:11:47;;;;;;;0.83;0.63;;;;;;;;;;4997529;28;20463;-77
2022/09/28 01:14:15;;;;;;;3.60;0.97;;;8.30;99.90;;;;;;4996546;28;20453;-79
2022/09/28 01:16:50;;;;;;;1.50;0.80;;;8.30;99.90;;;;;;4996245;28;20500;-80
2022/09/28 01:19:34;;;;;;;2.00;0.83;;;8.40;99.90;;;;;;4995309;28;20459;-82
2022/09/28 01:22:18;;;;;;;2.40;0.40;;;8.40;99.90;;;;;;4996403;28;20441;-81
2022/09/28 01:24:48;;;;;;;0.50;0.40;;;8.40;99.90;;;;;;4996459;28;20449;-78
2022/09/28 01:27:25;;;;;;;1.53;0.70;;;8.50;99.90;;;;;;4996329;28;20456;-79
2022/09/28 01:30:01;;;;;;;6.77;0.83;;;8.30;99.90;;;;;;4995942;28;20508;-79
2022/09/28 01:32:38;;;;;;;1.80;0.60;;;8.50;99.90;;;;;;4996309;28;20459;-78
2022/09/28 01:35:09;;;;;;;2.57;0.67;;;8.50;99.90;;;;;;4994798;28;20468;-79
2022/09/28 01:37:44;;;;;;;3.27;1.13;;;8.50;99.90;;;;;;4996226;28;20460;-82
2022/09/28 01:40:13;;;;;;;3.93;0.90;;;8.50;99.90;;;;;;4996053;28;20449;-79
2022/09/28 01:42:45;;;;;;;2.13;0.80;;;8.60;99.90;;;;;;4993544;28;20460;-79
2022/09/28 01:45:16;;;;;;;1.77;0.50;;;8.60;99.90;;;;;;4995981;28;20460;-79
2022/09/28 01:47:45;;;;;;;1.43;0.83;;;8.60;99.90;;;;;;4977746;28;20469;-78
2022/09/28 01:50:15;;;;;;;2.13;1.20;;;8.60;99.90;;;;;;4994694;28;20449;-78
2022/09/28 01:52:49;;;;;;;2.20;0.87;;;8.60;99.90;;;;;;4995751;28;20995;-80
2022/09/28 01:55:23;;;;;;;2.87;0.80;;;8.60;99.90;;;;;;4995784;28;20449;-79
2022/09/28 01:57:56;;;;;;;1.00;0.70;;;8.70;99.90;;;;;;4995636;28;20453;-86
2022/09/28 02:00:24;;;;;;;2.00;0.60;;;8.70;99.90;;;;;;4995725;28;20449;-75
2022/09/28 02:02:56;;;;;;;1.57;0.70;;;8.70;99.90;;;;;;4995540;28;20949;-77
2022/09/28 02:05:28;;;;;;;2.07;0.70;;;8.70;99.90;;;;;;4994342;28;20454;-78
2022/09/28 02:08:02;;;;;;;2.50;0.83;;;8.70;99.90;;;;;;4993030;28;20516;-78
2022/09/28 02:10:33;;;;;;;1.80;1.10;;;8.70;99.90;;;;;;4995079;28;20867;-80
2022/09/28 02:13:05;;;;;;;7.63;1.43;;;8.70;99.90;;;;;;4993835;28;20808;-78
2022/09/28 02:15:37;;;;;;;3.93;1.30;;;8.70;99.90;;;;;;4995384;28;20463;-79
2022/09/28 02:18:04;;;;;;;1.63;0.80;;;;;;;;;;4995181;28;20477;-79
2022/09/28 02:20:34;;;;;;;2.93;1.10;;;8.80;99.90;;;;;;4992900;28;20516;-79
2022/09/28 02:23:03;;;;;;;1.33;1.00;;;8.80;99.90;;;;;;4995135;28;20967;-76
2022/09/28 02:25:36;;;;;;;1.63;0.57;;;8.80;99.90;;;;;;4995279;28;20468;-75
2022/09/28 02:28:06;;;;;;;2.33;0.90;;;8.80;99.90;;;;;;4995139;28;20449;-78
2022/09/28 02:30:36;;;;;;;2.10;0.67;;;8.80;99.90;;;;;;4995092;28;20463;-79
2022/09/28 02:33:09;;;;;;;4.60;1.00;;;8.80;99.90;;;;;;4995099;28;20535;-79
2022/09/28 02:35:36;;;;;;;2.07;0.90;;;;;;;;;;4994247;28;20854;-78
2022/09/28 02:38:03;;;;;;;1.73;0.90;;;;;;;;;;4994945;28;20460;-80
2022/09/28 02:40:33;;;;;;;1.60;0.90;;;8.80;99.90;;;;;;4994733;28;20858;-80
2022/09/28 02:43:11;;;;;;;1.77;0.80;;;8.80;99.90;;;;;;4994836;28;20476;-79
2022/09/28 02:45:51;;;;;;;1.17;0.60;;;8.80;99.90;;;;;;4994715;28;20457;-77
2022/09/28 02:48:29;;;;;;;3.60;0.97;;;8.80;99.90;;;;;;4993692;28;20453;-81
2022/09/28 02:51:06;;;;;;;4.00;0.80;;;8.80;99.90;;;;;;4994783;28;20453;-77
2022/09/28 02:54:06;;;;;;;2.80;1.00;;;8.90;99.90;;;;;;4988417;28;20504;-82
2022/09/28 02:56:53;;;;;;;2.37;1.10;;;8.90;99.90;;;;;;4994204;28;20492;-78
2022/09/28 02:59:33;;;;;;;1.43;0.83;;;8.90;99.90;;;;;;4994627;28;20455;-75
2022/09/28 03:02:08;;;;;;;2.83;1.03;;;8.90;99.90;;;;;;4994537;28;20971;-74
2022/09/28 03:04:39;;;;;;;4.13;1.20;;;8.90;99.90;;;;;;4993443;28;20467;-79
2022/09/28 03:07:11;;;;;;;3.03;1.43;;;9.00;99.90;;;;;;4994533;28;20445;-75
2022/09/28 03:09:45;;;;;;;1.27;0.87;;;9.00;99.90;;;;;;4994454;28;20448;-80
2022/09/28 03:12:15;;;;;;;1.90;0.70;;;9.00;99.90;;;;;;4994570;28;20466;-77
2022/09/28 03:14:43;;;;;;;3.33;1.00;;;9.00;99.90;;;;;;4994157;28;20446;-77
2022/09/28 03:17:10;;;;;;;2.60;0.80;;;;;;;;;;4993356;28;20512;-78
2022/09/28 03:19:37;;;;;;;2.03;0.97;;;;;;;;;;4990842;28;20449;-82
2022/09/28 03:22:05;;;;;;;4.03;1.10;;;;;;;;;;4994286;28;20948;-82
2022/09/28 03:24:32;;;;;;;4.20;0.80;;;;;;;;;;4994328;28;20450;-78
2022/09/28 03:26:59;;;;;;;2.33;1.07;;;;;;;;;;4994302;28;20449;-80
2022/09/28 03:29:30;;;;;;;3.47;0.77;;;;;;;;;;4994302;28;20456;-78
2022/09/28 03:31:58;;;;;;;7.30;1.60;;;9.00;99.90;;;;;;4994071;28;20454;-78
2022/09/28 03:34:25;;;;;;;1.77;0.80;;;;;;;;;;4992938;28;20834;-81
2022/09/28 03:36:52;;;;;;;3.33;1.03;;;;;;;;;;4994522;28;20496;-82
2022/09/28 03:39:19;;;;;;;0.63;0.60;;;;;;;;;;4994315;28;20449;-78
2022/09/28 03:41:46;;;;;;;4.80;1.30;;;;;;;;;;4994018;28;20457;-78
2022/09/28 03:44:13;;;;;;;1.67;0.90;;;;;;;;;;4994042;28;20821;-79
2022/09/28 03:46:40;;;;;;;2.00;0.87;;;;;;;;;;4994252;28;20484;-82
2022/09/28 03:49:09;;;;;;;1.73;1.03;;;8.90;99.90;;;;;;4993359;28;20467;-82
2022/09/28 03:51:36;;;;;;;9.83;1.33;;;;;;;;;;4995166;28;20453;-77
2022/09/28 03:54:03;;;;;;;3.60;1.17;;;;;;;;;;5000254;28;20461;-76
2022/09/28 03:56:30;;;;;;;1.00;0.73;;;;;;;;;;5002285;28;20485;-76
2022/09/28 03:58:57;;;;;;;2.33;0.80;;;;;;;;;;4993999;28;21104;-76
2022/09/28 04:01:24;;;;;;;4.00;1.23;;;;;;;;;;4993894;28;20446;-79
2022/09/28 04:03:54;;;;;;;2.10;1.10;;;8.90;99.90;;;;;;4992312;28;20512;-77
2022/09/28 04:06:23;;;;;;;4.00;1.10;;;8.90;99.90;;;;;;4991316;28;20532;-77
2022/09/28 04:08:50;;;;;;;4.27;1.27;;;;;;;;;;4993713;28;20456;-76
2022/09/28 04:11:17;;;;;;;7.23;1.17;;;;;;;;;;4993488;28;20441;-77
2022/09/28 04:13:44;;;;;;;2.83;0.70;;;;;;;;;;4993565;28;20449;-78
2022/09/28 04:16:11;;;;;;;1.50;0.73;;;;;;;;;;4993425;28;20461;-79
2022/09/28 04:18:38;;;;;;;1.63;0.77;;;;;;;;;;4992237;28;20485;-76
2022/09/28 04:21:07;;;;;;;2.07;0.90;;;8.60;99.90;;;;;;4993573;28;20868;-79
2022/09/28 04:23:37;;;;;;;4.43;1.00;;;8.50;99.90;;;;;;4993679;28;20516;-81
2022/09/28 04:26:05;;;;;;;0.63;0.57;;;;;;;;;;4994004;28;20445;-78
2022/09/28 04:31:20;;;;;;;3.50;0.80;;;8.40;99.90;;;;;;4997352;28;20821;-78
2022/09/28 04:33:47;;;;;;;1.00;0.60;;;;;;;;;;4996144;28;20801;-79
2022/09/28 04:36:14;;;;;;;2.70;0.60;;;;;;;;;;4997178;28;20456;-80
2022/09/28 04:38:42;;;;;;;2.20;0.50;;;8.50;99.90;;;;;;4997207;28;20448;-76
2022/09/28 04:41:10;;;;;;;1.33;0.70;;;;;;;;;;4997289;28;20449;-75
2022/09/28 04:43:37;;;;;;;1.63;0.60;;;;;;;;;;4997104;28;20486;-75
2022/09/28 04:46:05;;;;;;;2.20;0.77;;;8.50;99.90;;;;;;4996998;28;20473;-75
2022/09/28 04:48:32;;;;;;;3.13;0.57;;;;;;;;;;4995887;28;20449;-74
2022/09/28 04:51:00;;;;;;;1.87;0.60;;;8.50;99.90;;;;;;4996940;28;20456;-75
2022/09/28 04:53:28;;;;;;;2.93;0.67;;;8.40;99.90;;;;;;4996982;28;20453;-75
2022/09/28 04:55:58;;;;;;;2.30;0.83;;;8.40;99.90;;;;;;4997115;28;20457;-75
2022/09/28 04:58:25;;;;;;;1.53;0.80;;;;;;;;;;4996865;28;20496;-78
2022/09/28 05:00:53;;;;;;;4.07;0.60;;;;;;;;;;4996874;28;20532;-75
2022/09/28 05:03:20;;;;;;;2.00;1.10;;;;;;;;;;4995738;28;20453;-77
2022/09/28 05:05:47;;;;;;;1.83;1.10;;;8.30;99.90;;;;;;4996713;28;20456;-75
2022/09/28 05:08:14;;;;;;;4.40;4.00;;;;;;;;;;4996658;28;20449;-76
2022/09/28 05:10:42;;;;;;;1.70;0.90;;;;;;;;;;4996660;28;20453;-76
2022/09/28 05:13:11;;;;;;;0.90;0.77;;;8.30;99.90;;;;;;4996660;28;20441;-75
2022/09/28 05:15:38;;;;;;;1.30;0.80;;;;;;;;;;4996597;28;20453;-77
2022/09/28 05:18:05;;;;;;;2.33;1.10;;;8.30;99.90;;;;;;4996279;28;20497;-75
2022/09/28 05:20:32;;;;;;;1.70;0.90;;;;;;;;;;4995610;28;20441;-79
2022/09/28 05:22:59;;;;;;;5.70;0.90;;;;;;;;;;4998293;28;20457;-76
2022/09/28 05:25:27;;;;;;;1.07;0.60;;;;;;;;;;4996869;28;20467;-75
2022/09/28 05:27:55;;;;;;;0.87;0.60;;;8.20;99.90;;;;;;4996439;28;20957;-77
2022/09/28 05:30:24;;;;;;;1.83;0.77;;;8.40;99.90;;;;;;4996276;28;20449;-76
2022/09/28 05:32:52;;;;;;;5.77;0.90;;;;;;;;;;4996282;28;20445;-75
2022/09/28 05:35:19;;;;;;;1.13;0.80;;;;;;;;;;4994765;28;20481;-75
2022/09/28 05:37:46;;;;;;;1.33;1.00;;;;;;;;;;4995581;28;20493;-78
2022/09/28 05:40:14;;;;;;;3.17;0.93;;;;;;;;;;4995948;28;20458;-79
2022/09/28 05:42:42;;;;;;;1.50;0.70;;;;;;;;;;4995848;28;20493;-78
2022/09/28 05:45:10;;;;;;;2.87;0.93;;;7.60;99.90;;;;;;4995759;28;20485;-78
2022/09/28 05:47:39;;;;;;;1.03;0.73;;;8.30;99.90;;;;;;4995845;28;20485;-75
2022/09/28 05:50:07;;;;;;;1.20;0.83;;;8.40;99.90;;;;;;4994845;28;20449;-74
2022/09/28 05:52:34;;;;;;;5.57;1.20;;;;;;;;;;4995951;28;20456;-76
2022/09/28 05:55:02;;;;;;;1.50;0.93;;;;;;;;;;4995894;28;20799;-76
2022/09/28 05:57:29;;;;;;;2.00;0.90;;;;;;;;;;4995860;28;20583;-83
2022/09/28 05:59:56;;;;;;;1.27;0.77;;;;;;;;;;4995934;28;20454;-81
2022/09/28 06:02:23;;;;;;;3.37;0.63;;;;;;;;;;4995975;28;20446;-82
2022/09/28 06:04:52;;;;;;;4.47;0.93;;;;;;;;;;4994754;28;20456;-80
2022/09/28 06:07:20;;;;;;;2.50;1.00;;;;;;;;;;4995691;28;20544;-82
2022/09/28 06:09:48;;;;;;;3.43;1.00;;;;;;;;;;4995992;28;20547;-83
2022/09/28 06:12:15;;;;;;;1.50;0.93;;;;;;;;;;4995675;28;20451;-85
2022/09/28 06:14:42;;;;;;;2.03;1.03;;;;;;;;;;4995447;28;20449;-82
2022/09/28 06:17:10;;;;;;;1.60;0.57;;;;;;;;;;4995232;28;20493;-82
2022/09/28 06:19:37;;;;;;;2.47;1.13;;;;;;;;;;4995207;28;20460;-85
2022/09/28 06:22:06;;;;;;;6.10;1.43;;;;;;;;;;4996347;28;20457;-84
2022/09/28 06:24:33;;;;;;;2.67;1.30;;;;;;;;;;5004733;28;20442;-82
2022/09/28 06:27:00;;;;;;;3.10;1.30;;;;;;;;;;5017047;28;20450;-78
2022/09/28 06:29:28;;;;;;;1.63;1.20;;;;;;;;;;4998642;28;20433;-86
2022/09/28 06:31:55;;;;;;;3.27;1.47;;;;;;;;;;4996424;28;20463;-83
2022/09/28 06:34:23;;;;;;;2.80;1.40;;;;;;;;;;4995942;28;20461;-90
2022/09/28 06:36:50;;;;;;;5.40;1.27;;;;;;;;;;4995861;28;20460;-83
2022/09/28 06:39:19;;;;;;;4.43;1.43;;;8.60;99.90;;;;;;4992524;28;20500;-82
2022/09/28 06:41:46;;;;;;;3.70;1.60;;;;;;;;;;4996697;28;20454;-87
2022/09/28 06:44:13;;;;;;;1.60;1.23;;;;;;;;;;4997414;28;20976;-81
2022/09/28 06:46:40;;;;;;;3.40;1.60;;;;;;;;;;4997793;28;20464;-82
2022/09/28 06:49:08;;;;;;;2.47;1.23;;;;;;;;;;4996591;28;20944;-87
2022/09/28 06:51:35;;;;;;;3.97;1.93;;;;;;;;;;4990678;28;20464;-81
2022/09/28 06:54:02;;;;;;;2.90;1.83;;;;;;;;;;4996572;28;20453;-84
2022/09/28 06:56:31;;;;;;;4.13;1.60;;;8.90;99.90;;;;;;4994950;28;20525;-86
2022/09/28 06:58:58;;;;;;;4.40;2.20;;;;;;;;;;4994819;28;20503;-84
2022/09/28 07:01:25;;;;;;;2.20;1.20;;;;;;;;;;4994636;28;20812;-84
2022/09/28 07:03:52;;;;;;;2.60;1.80;;;;;;;;;;4993669;28;20480;-82
2022/09/28 07:06:22;;;;;;;4.80;2.17;;;;;;;;;;4994662;28;20949;-85
2022/09/28 07:08:49;;;;;;;5.03;1.40;;;;;;;;;;4994831;28;20471;-82
2022/09/28 07:11:19;;;;;;;6.40;1.50;;;8.70;99.90;;;;;;4994627;28;20525;-88
2022/09/28 07:13:47;;;;;;;2.97;1.40;;;;;;;;;;4994589;28;20481;-82
2022/09/28 07:16:14;;;;;;;3.90;1.57;;;;;;;;;;4995364;28;20465;-79
2022/09/28 07:18:41;;;;;;;2.10;1.50;;;;;;;;;;4993324;28;20515;-82
2022/09/28 07:21:08;;;;;;;1.70;1.33;;;;;;;;;;4993947;28;20452;-81
2022/09/28 07:23:36;;;;;;;2.27;1.87;;;;;;;;;;4994148;28;20449;-83
2022/09/28 07:26:04;;;;;;;2.57;1.77;;;8.80;99.90;;;;;;4994265;28;20484;-81
2022/09/28 07:28:32;;;;;;;2.77;1.80;;;;;;;;;;4994265;28;20486;-82
2022/09/28 07:31:02;;;;;;;2.93;1.47;;;;;;;;;;4994408;28;20450;-82
2022/09/28 07:33:31;;;;;;;1.60;1.47;;;;;;;;;;4992754;28;20453;-83
2022/09/28 07:35:59;;;;;;;4.30;1.70;;;;;;;;;;4993930;28;20856;-81
2022/09/28 07:38:26;;;;;;;6.33;1.53;;;;;;;;;;4993859;28;20513;-83
2022/09/28 07:41:11;;;;;;;4.13;1.70;;;;;;;;;;4993716;28;20453;-80
2022/09/28 07:43:39;;;;;;;5.17;1.60;;;;;;;;;;4993867;28;20790;-81
2022/09/28 07:46:10;;;;;;;4.33;1.83;;;;;;;;;;4993594;28;20877;-82
2022/09/28 07:48:40;;;;;;;3.50;1.63;;;9.10;99.90;;;;;;4993163;28;20445;-81
2022/09/28 07:51:08;;;;;;;1.83;1.40;;;;;;;;;;4994056;28;20453;-81
2022/09/28 07:53:37;;;;;;;3.80;1.40;;;;;;;;;;4993785;28;20945;-82
2022/09/28 07:56:05;;;;;;;3.10;1.70;;;9.20;99.90;;;;;;4993644;28;20953;-83
2022/09/28 07:58:32;;;;;;;5.37;1.63;;;;;;;;;;4993390;28;20564;-83
2022/09/28 08:01:03;;;;;;;3.17;1.60;;;9.40;99.90;;;;;;4993539;28;20477;-83
2022/09/28 08:03:32;;;;;;;1.10;0.90;;;;;;;;;;4990503;28;20445;-84
2022/09/28 08:05:59;;;;;;;2.40;1.40;;;;;;;;;;4993833;28;20454;-82
2022/09/28 08:08:27;;;;;;;2.13;1.10;;;;;;;;;;4993618;28;20449;-83
2022/09/28 08:10:56;;;;;;;3.20;1.60;;;;;;;;;;4994544;28;20449;-84
2022/09/28 08:13:24;;;;;;;2.80;1.50;;;;;;;;;;4997411;28;20467;-82
2022/09/28 08:15:55;;;;;;;4.63;2.10;;;;;;;;;;4993596;28;20453;-82
2022/09/28 08:18:22;;;;;;;4.33;1.30;;;;;;;;;;4992124;28;20500;-82
2022/09/28 08:23:37;;;;;;;5.17;1.60;;;;;;;;;;4993867;28;20440;-85
2022/09/28 08:26:04;;;;;;;1.20;1.10;;;;;;;;;;4993661;28;20850;-83
2022/09/28 08:28:31;;;;;;;7.90;1.30;;;;;;;;;;4993885;28;20968;-86
2022/09/28 08:31:00;;;;;;;3.23;1.20;;;9.70;99.90;;;;;;4993623;28;20476;-83
2022/09/28 08:33:27;;;;;;;2.37;1.50;;;;;;;;;;4989942;28;20466;-84
2022/09/28 08:36:00;;;;;;;1.90;1.40;;;10.00;99.90;;;;;;4985636;28;20472;-84
2022/09/28 08:38:29;;;;;;;3.03;1.63;;;10.10;99.90;;;;;;4993369;28;20493;-83
2022/09/28 08:41:03;;;;;;;3.40;1.73;;;;;;;;;;4993597;28;20454;-84
2022/09/28 08:43:57;;;;;;;7.97;1.93;;;10.60;99.90;;;;;;4993277;28;20448;-84
2022/09/28 08:46:26;;;;;;;2.03;1.00;;;10.20;99.90;;;;;;4992116;28;20472;-84
2022/09/28 08:48:58;;;;;;;3.87;1.57;;;10.20;99.90;;;;;;4992193;28;20461;-84
2022/09/28 08:51:31;;;;;;;4.23;1.43;;;10.20;99.90;;;;;;4993456;28;20461;-85
2022/09/28 08:54:02;;;;;;;3.40;1.67;;;;;;;;;;4994370;28;20445;-85
2022/09/28 08:56:38;;;;;;;1.63;1.20;;;10.50;99.90;;;;;;4996786;28;20457;-82
2022/09/28 08:59:12;;;;;;;3.50;1.47;;;10.40;99.90;;;;;;5017091;28;20505;-84
2022/09/28 09:01:46;;;;;;;1.40;1.30;;;10.50;99.90;;;;;;5003417;28;20940;-84
2022/09/28 09:04:13;;;;;;;2.20;1.33;;;;;;;;;;4991943;28;20468;-85
2022/09/28 09:06:55;;;;;;;2.30;1.40;;;10.80;99.90;;;;;;4993195;28;20448;-85
2022/09/28 09:09:31;;;;;;;4.40;2.13;;;10.90;99.90;;;;;;4992979;28;20456;-87
2022/09/28 09:12:07;;;;;;;4.40;1.67;;;10.90;99.90;;;;;;4993281;28;20475;-87
2022/09/28 09:14:53;;;;;;;5.20;1.73;;;10.80;99.90;;;;;;4995483;28;20460;-88
2022/09/28 09:17:31;;;;;;;1.97;1.73;;;10.80;99.90;;;;;;4996335;28;20473;-88
2022/09/28 09:20:04;;;;;;;1.30;1.20;;;10.50;99.90;;;;;;4995498;28;20461;-84
2022/09/28 09:22:39;;;;;;;1.70;1.53;;;10.40;99.90;;;;;;4996202;28;20489;-84
2022/09/28 09:25:18;;;;;;;2.20;1.63;;;10.30;99.90;;;;;;4993479;28;20531;-89
2022/09/28 09:28:01;;;;;;;3.33;1.73;;;10.30;99.90;;;;;;4990042;28;20465;-86
2022/09/28 09:30:34;;;;;;;2.17;1.40;;;10.40;99.90;;;;;;4978286;28;20505;-85
2022/09/28 09:33:23;;;;;;;3.20;1.93;;;10.10;99.90;;;;;;4976809;28;20816;-86
2022/09/28 09:36:09;;;;;;;2.90;1.90;;;10.40;99.90;;;;;;4990118;28;20827;-85
2022/09/28 09:38:52;;;;;;;3.80;2.30;;;10.30;99.90;;;;;;4992937;28;20512;-84
2022/09/28 09:41:30;;;;;;;6.03;2.30;;;10.30;99.90;;;;;;4992574;28;20815;-85
2022/09/28 09:44:37;;;;;;;4.70;2.10;;;10.40;99.90;;;;;;4993193;28;20453;-84
2022/09/28 09:47:07;;;;;;;3.73;1.90;;;;;;;;;;4988523;28;20448;-84
2022/09/28 09:49:39;;;;;;;2.90;1.63;;;10.70;99.90;;;;;;4992609;28;20445;-83
2022/09/28 09:52:13;;;;;;;3.47;1.80;;;10.80;99.90;;;;;;4993090;28;20442;-86
2022/09/28 09:54:48;;;;;;;4.33;2.37;;;10.80;99.90;;;;;;4993281;28;20449;-87
2022/09/28 09:57:17;;;;;;;4.23;2.03;;;11.20;99.90;;;;;;4995117;28;20445;-86
2022/09/28 09:59:45;;;;;;;5.73;1.83;;;11.30;99.90;;;;;;4993620;28;20497;-87
2022/09/28 10:02:22;;;;;;;2.23;1.67;;;11.30;99.90;;;;;;4993206;28;20445;-87
2022/09/28 10:04:51;;;;;;;5.67;1.87;;;11.40;99.90;;;;;;4991829;28;20449;-88
2022/09/28 10:07:23;;;;;;;5.20;2.00;;;11.30;99.90;;;;;;4993688;28;20504;-91
2022/09/28 10:09:57;;;;;;;3.63;1.83;;;11.20;99.90;;;;;;4995551;28;20452;-85
2022/09/28 10:12:25;;;;;;;2.40;2.00;;;;;;;;;;4996244;28;20957;-87
2022/09/28 10:14:54;;;;;;;6.37;1.93;;;;;;;;;;4994684;28;20507;-89
2022/09/28 10:17:26;;;;;;;4.13;1.80;;;;;;;;;;4984213;28;20489;-86
2022/09/28 10:19:55;;;;;;;3.37;1.13;;;11.10;99.90;;;;;;4994235;28;20500;-87
2022/09/28 10:22:25;;;;;;;2.73;1.40;;;11.30;99.90;;;;;;4995411;28;20453;-87
2022/09/28 10:24:57;;;;;;;3.60;1.43;;;11.10;99.90;;;;;;4994903;28;20460;-86
2022/09/28 10:27:27;;;;;;;2.50;1.67;;;11.30;99.90;;;;;;4995220;28;20544;-89
2022/09/28 10:29:57;;;;;;;3.03;1.80;;;11.30;99.90;;;;;;4995237;28;20454;-85
2022/09/28 10:32:27;;;;;;;5.70;1.57;;;11.30;99.90;;;;;;4993769;28;20445;-90
2022/09/28 10:35:11;;;;;;;2.00;1.70;;;11.30;99.90;;;;;;4994178;28;20797;-93
2022/09/28 10:37:47;;;;;;;3.90;1.53;;;;;;;;;;4994865;28;20453;-83
2022/09/28 10:40:37;;;;;;;3.30;1.50;;;11.30;99.90;;;;;;4995272;28;20508;-88
2022/09/28 10:43:06;;;;;;;6.30;1.87;;;11.30;99.90;;;;;;4993772;28;20450;-87
2022/09/28 10:45:36;;;;;;;7.13;1.90;;;11.40;99.90;;;;;;4994700;28;20476;-85
2022/09/28 10:48:15;;;;;;;5.10;1.90;;;11.60;99.90;;;;;;4994941;28;20456;-90
2022/09/28 10:50:42;;;;;;;2.80;1.70;;;11.80;99.90;;;;;;4988786;28;20457;-88
2022/09/28 10:53:19;;;;;;;2.53;1.33;;;12.00;99.90;;;;;;4980667;28;20445;-87
2022/09/28 10:55:59;;;;;;;3.87;1.47;;;12.20;99.90;;;;;;4983743;28;20476;-86
2022/09/28 10:58:36;;;;;;;5.13;1.43;;;12.10;99.90;;;;;;5000735;28;20477;-88
2022/09/28 11:01:08;;;;;;;4.53;1.27;;;12.00;99.90;;;;;;4993867;28;20971;-93
2022/09/28 11:03:47;;;;;;;1.23;1.03;;;11.70;99.90;;;;;;4993311;28;20446;-89
2022/09/28 11:06:15;;;;;;;2.70;1.33;;;;;;;;;;5027086;23;20500;-90
2022/09/28 11:08:44;;;;;;;5.20;1.30;;;12.10;99.90;;;;;;5027194;28;20532;-94
2022/09/28 11:11:15;;;;;;;5.57;1.80;;;12.30;99.90;;;;;;5019856;28;20433;-92
2022/09/28 11:13:45;;;;;;;2.43;1.50;;;12.40;99.90;;;;;;5016018;28;20449;-88
2022/09/28 11:16:28;;;;;;;2.20;1.20;;;12.40;99.90;;;;;;5017176;28;20471;-87
2022/09/28 11:18:55;;;;;;;4.40;1.70;;;;;;;;;;5015110;28;20530;-85
2022/09/28 11:21:25;;;;;;;4.87;1.83;;;12.50;99.90;;;;;;5013364;28;20459;-89
2022/09/28 11:24:07;;;;;;;4.27;1.30;;;12.40;99.90;;;;;;5014093;28;20535;-90
2022/09/28 11:26:39;;;;;;;4.80;2.03;;;12.60;99.90;;;;;;5011309;28;20491;-88
2022/09/28 11:29:07;;;;;;;4.20;1.43;;;;;;;;;;5013882;28;20444;-86
2022/09/28 11:31:34;;;;;;;2.73;1.00;;;;;;;;;;5013573;28;20928;-83
2022/09/28 11:34:05;;;;;;;2.10;1.50;;;12.20;99.90;;;;;;5011993;28;20539;-80
2022/09/28 11:36:47;;;;;;;3.93;1.60;;;12.20;99.90;;;;;;5012892;28;20451;-93
2022/09/28 11:39:26;;;;;;;1.60;1.00;;;12.10;99.90;;;;;;5013481;28;20539;-83
2022/09/28 11:42:04;;;;;;;2.20;1.20;;;12.40;99.90;;;;;;5013454;28;20547;-92
2022/09/28 11:44:43;;;;;;;5.67;1.27;;;12.70;99.90;;;;;;5013519;28;20448;-87
2022/09/28 11:47:37;;;;;;;2.03;1.20;;;13.10;99.90;;;;;;5014223;28;20502;-91
2022/09/28 11:50:14;;;;;;;1.73;1.03;;;13.10;99.90;;;;;;5007596;28;20463;-86
2022/09/28 11:52:46;;;;;;;1.57;0.90;;;12.70;99.90;;;;;;5014824;28;20959;-85
2022/09/28 11:55:18;;;;;;;3.57;0.97;;;12.80;99.90;;;;;;5015423;28;20440;-92
2022/09/28 11:57:54;;;;;;;1.93;1.10;;;12.90;99.90;;;;;;5017259;28;20460;-85
2022/09/28 12:00:22;;;;;;;3.50;1.30;;;;;;;;;;5016688;28;20483;-90
2022/09/28 12:02:55;;;;;;;1.80;0.90;;;12.30;99.90;;;;;;5014779;28;20448;-85
2022/09/28 12:05:26;;;;;;;3.93;1.53;;;12.50;99.90;;;;;;5011703;28;20835;-83
2022/09/28 12:07:56;;;;;;;5.30;1.37;;;12.50;99.90;;;;;;5013226;28;20452;-85
2022/09/28 12:10:34;;;;;;;1.33;0.97;;;12.60;99.90;;;;;;5013169;28;20452;-82
2022/09/28 12:13:09;;;;;;;1.77;0.90;;;12.40;99.90;;;;;;5013142;28;20483;-82
2022/09/28 12:15:48;;;;;;;2.17;1.30;;;12.00;99.90;;;;;;5012816;28;20526;-82
2022/09/28 12:18:22;;;;;;;2.23;0.80;;;11.40;99.90;;;;;;5012259;28;20536;-85
2022/09/28 12:20:53;;;;;;;1.00;0.90;;;12.40;99.90;;;;;;5013054;28;20499;-83
2022/09/28 12:23:25;;;;;;;2.23;1.23;;;12.60;99.90;;;;;;5013092;28;20456;-85
2022/09/28 12:25:57;;;;;;;2.57;1.10;;;12.90;99.90;;;;;;5012847;28;20559;-83
2022/09/28 12:28:33;;;;;;;2.13;1.20;;;12.80;99.90;;;;;;5012064;28;20449;-83
2022/09/28 12:31:11;;;;;;;1.50;1.13;;;12.80;99.90;;;;;;4992610;28;20456;-86
2022/09/28 12:33:38;;;;;;;1.97;1.30;;;;;;;;;;4991925;28;20453;-84
2022/09/28 12:36:14;;;;;;;2.73;1.50;;;12.70;99.90;;;;;;4992994;28;20512;-84
2022/09/28 12:39:09;;;;;;;5.70;1.93;;;12.60;99.90;;;;;;4993155;28;20544;-86
2022/09/28 12:41:50;;;;;;;1.63;1.00;;;12.80;99.90;;;;;;4992853;28;20445;-86
2022/09/28 12:44:45;;;;;;;3.07;1.30;;;12.80;99.90;;;;;;4993099;28;20448;-85
2022/09/28 12:47:29;;;;;;;6.20;1.40;;;12.70;99.90;;;;;;4993475;28;20812;-79
2022/09/28 12:50:08;;;;;;;4.53;1.20;;;12.60;99.90;;;;;;4995096;28;20453;-85
2022/09/28 12:52:45;;;;;;;3.90;1.23;;;12.70;99.90;;;;;;4996642;28;20975;-84
2022/09/28 12:55:24;;;;;;;1.57;1.17;;;12.60;99.90;;;;;;4996623;28;20448;-86
2022/09/28 12:57:59;;;;;;;5.53;1.40;;;12.50;99.90;;;;;;4996881;28;20450;-85
2022/09/28 13:00:33;;;;;;;2.33;1.40;;;12.90;99.90;;;;;;4995913;28;20484;-85
2022/09/28 13:03:30;;;;;;;4.20;1.33;;;12.70;99.90;;;;;;4996824;28;20656;-80
2022/09/28 13:06:36;;;;;;;2.87;1.17;;;12.80;99.90;;;;;;4995509;28;20492;-86
2022/09/28 13:09:15;;;;;;;0.87;0.70;;;12.60;99.90;;;;;;4996274;28;20456;-87
2022/09/28 13:11:54;;;;;;;1.10;0.77;;;12.60;99.90;;;;;;4996471;28;20809;-85
2022/09/28 13:15:02;;;;;;;2.90;1.20;;;12.60;99.90;;;;;;4996007;28;20448;-82
2022/09/28 13:17:40;;;;;;;2.00;1.10;;;12.70;99.90;;;;;;4999500;28;21042;-81
2022/09/28 13:20:24;;;;;;;2.20;0.90;;;12.90;99.90;;;;;;4994616;28;20500;-84
2022/09/28 13:22:55;;;;;;;1.10;0.80;;;13.10;99.90;;;;;;4996127;28;20456;-85
2022/09/28 13:25:27;;;;;;;1.93;1.07;;;12.80;99.90;;;;;;4995876;28;20453;-84
2022/09/28 13:27:58;;;;;;;0.80;0.60;;;12.40;99.90;;;;;;5000592;28;20468;-84
2022/09/28 13:30:25;;;;;;;1.60;0.80;;;;;;;;;;4995949;28;20461;-81
2022/09/28 13:32:57;;;;;;;2.70;0.90;;;12.40;97.50;;;;;;4995865;28;20453;-83
2022/09/28 13:35:24;;;;;;;1.97;1.50;;;;;;;;;;4994422;28;20456;-81
2022/09/28 13:38:25;;;;;;;2.30;1.27;;;12.90;99.90;;;;;;4995954;28;20453;-82
2022/09/28 13:41:12;;;;;;;0.83;0.83;;;13.40;99.90;;;;;;4995322;28;20567;-83
2022/09/28 13:44:00;;;;;;;2.30;1.07;;;13.30;99.90;;;;;;4995417;28;20800;-81
2022/09/28 13:46:39;;;;;;;2.30;0.80;;;13.30;98.60;;;;;;4995727;28;20449;-82
2022/09/28 13:49:16;;;;;;;1.03;0.70;;;13.10;99.90;;;;;;4994653;28;20456;-84
2022/09/28 13:51:57;;;;;;;1.40;0.60;;;12.90;98.80;;;;;;5011171;28;20448;-84
2022/09/28 13:54:50;;;;;;;3.90;1.00;;;12.70;99.90;;;;;;5014777;28;20449;-82
2022/09/28 13:57:24;;;;;;;4.40;1.20;;;12.70;98.20;;;;;;5014936;28;20452;-84
2022/09/28 14:00:01;;;;;;;1.23;0.90;;;12.60;99.90;;;;;;5014185;28;21009;-78
2022/09/28 14:02:35;;;;;;;2.70;0.80;;;12.70;99.90;;;;;;5015068;28;21079;-81
2022/09/28 14:05:05;;;;;;;1.93;0.90;;;12.90;99.90;;;;;;5011476;28;20566;-83